ADDS METAR Data INFO
IDs: Format: Raw Decoded Include TAF

Data at: 0448 UTC 22 Apr 2018

METAR for:KIND (Indianapolis Intl, IN, US)
Text:KIND 220354Z 09009KT 10SM OVC130 12/M04 A3032 RMK AO2 SLP266 T01171044
Temperature: 11.7°C ( 53°F)
Dewpoint: -4.4°C ( 24°F) [RH = 32%]
Pressure (altimeter):30.32 inches Hg (1026.8 mb) [Sea level pressure: 1026.6 mb]
Winds:from the E (90 degrees) at 10 MPH (9 knots; 4.6 m/s)
Visibility:10 or more sm (16+ km)
Ceiling:13000 feet AGL
Clouds: overcast cloud deck at 13000 feet AGL